Private Wetterstation Sandau
Wetterdaten: Samstag, 15.12.2012
Datum Zeit Temp. A. Feuchte A. Luftdruck Regen Wind Richtung Richtung Taupunkt Windchill
15.12.2012 00:01 0,3 C 88 % 999,5 hPa 0,0 l/m 16,6 km/h (3 Bft) NO 45 -1,4 C -4,3 C
15.12.2012 00:06 0,3 C 88 % 999,5 hPa 0,0 l/m 20,5 km/h (4 Bft) NO 45 -1,4 C -4,9 C
15.12.2012 00:11 0,4 C 88 % 999,5 hPa 0,0 l/m 22,0 km/h (4 Bft) NO 45 -1,3 C -5,0 C
15.12.2012 00:16 0,4 C 88 % 999,5 hPa 0,0 l/m 15,8 km/h (3 Bft) NO 45 -1,3 C -4,1 C
15.12.2012 00:21 0,4 C 88 % 999,5 hPa 0,0 l/m 23,0 km/h (4 Bft) NO 45 -1,3 C -5,1 C
15.12.2012 00:26 0,4 C 88 % 999,5 hPa 0,0 l/m 12,2 km/h (2 Bft) NO 45 -1,3 C -3,4 C
15.12.2012 00:31 0,4 C 88 % 999,4 hPa 0,0 l/m 9,7 km/h (2 Bft) NO 45 -1,3 C -2,8 C
15.12.2012 00:36 0,4 C 89 % 999,4 hPa 0,0 l/m 10,8 km/h (2 Bft) NO 45 -1,2 C -3,0 C
15.12.2012 00:41 0,5 C 89 % 999,5 hPa 0,0 l/m 12,2 km/h (2 Bft) NO 45 -1,1 C -3,2 C
15.12.2012 00:46 0,5 C 89 % 999,2 hPa 0,0 l/m 12,6 km/h (3 Bft) NO 45 -1,1 C -3,3 C
15.12.2012 00:51 0,5 C 89 % 999,4 hPa 0,0 l/m 7,6 km/h (2 Bft) NO 45 -1,1 C -2,0 C
15.12.2012 00:56 0,6 C 89 % 999,2 hPa 0,0 l/m 13,3 km/h (3 Bft) NO 45 -1,0 C -3,3 C
15.12.2012 01:01 0,6 C 89 % 999,3 hPa 0,0 l/m 9,0 km/h (2 Bft) NO 45 -1,0 C -2,3 C
15.12.2012 01:06 0,6 C 89 % 999,4 hPa 0,0 l/m 15,8 km/h (3 Bft) NO 45 -1,0 C -3,8 C
15.12.2012 01:11 0,6 C 89 % 999,4 hPa 0,0 l/m 7,2 km/h (2 Bft) NO 45 -1,0 C -1,8 C
15.12.2012 01:16 0,6 C 90 % 999,2 hPa 0,0 l/m 7,6 km/h (2 Bft) NO 45 -0,8 C -1,9 C
15.12.2012 01:21 0,7 C 90 % 999,3 hPa 0,0 l/m 5,0 km/h (1 Bft) NO 45 -0,7 C -0,8 C
15.12.2012 01:26 0,7 C 90 % 999,4 hPa 0,0 l/m 10,1 km/h (2 Bft) NO 45 -0,7 C -2,5 C
15.12.2012 01:31 0,8 C 90 % 999,1 hPa 0,0 l/m 14,8 km/h (3 Bft) NO 45 -0,6 C -3,4 C
15.12.2012 01:36 0,8 C 90 % 999,0 hPa 0,0 l/m 6,8 km/h (2 Bft) NO 45 -0,6 C -1,4 C
15.12.2012 01:41 0,8 C 90 % 999,0 hPa 0,0 l/m 11,2 km/h (2 Bft) O-NO 67 -0,6 C -2,7 C
15.12.2012 01:46 0,9 C 90 % 998,8 hPa 0,0 l/m 2,5 km/h (1 Bft) O-NO 67 -0,6 C 0,9 C
15.12.2012 01:51 0,9 C 91 % 998,9 hPa 0,0 l/m 6,8 km/h (2 Bft) O-NO 67 -0,4 C -1,3 C
15.12.2012 01:56 0,9 C 91 % 998,8 hPa 0,0 l/m 12,6 km/h (3 Bft) O-NO 67 -0,4 C -2,8 C
15.12.2012 02:01 0,9 C 91 % 998,8 hPa 0,0 l/m 8,3 km/h (2 Bft) O-NO 67 -0,4 C -1,8 C
15.12.2012 02:06 0,9 C 91 % 998,7 hPa 0,0 l/m 6,8 km/h (2 Bft) O-NO 67 -0,4 C -1,3 C
15.12.2012 02:11 0,9 C 91 % 998,6 hPa 0,0 l/m 5,0 km/h (1 Bft) O-SO 112 -0,4 C -0,6 C
15.12.2012 02:16 0,9 C 91 % 998,6 hPa 0,0 l/m 19,8 km/h (3 Bft) SW 225 -0,4 C -4,1 C
15.12.2012 02:21 1,0 C 91 % 998,6 hPa 0,0 l/m 14,0 km/h (3 Bft) S-SO 157 -0,3 C -3,0 C
15.12.2012 02:26 1,0 C 91 % 998,6 hPa 0,0 l/m 11,2 km/h (2 Bft) S-SO 157 -0,3 C -2,4 C
15.12.2012 02:31 1,0 C 91 % 998,6 hPa 0,0 l/m 5,8 km/h (2 Bft) SW 225 -0,3 C -0,8 C
15.12.2012 02:36 1,1 C 91 % 998,7 hPa 0,0 l/m 13,7 km/h (3 Bft) O-SO 112 -0,2 C -2,8 C
15.12.2012 02:41 1,1 C 91 % 998,6 hPa 0,0 l/m 6,8 km/h (2 Bft) SO 135 -0,2 C -1,1 C
15.12.2012 02:46 1,1 C 91 % 998,7 hPa 0,0 l/m 15,5 km/h (3 Bft) S-SO 157 -0,2 C -3,1 C
15.12.2012 02:51 1,1 C 92 % 998,6 hPa 0,0 l/m 14,8 km/h (3 Bft) SO 135 -0,1 C -3,0 C
15.12.2012 02:56 1,2 C 92 % 998,6 hPa 0,0 l/m 10,1 km/h (2 Bft) SO 135 0,0 C -1,9 C
15.12.2012 03:01 1,2 C 92 % 998,6 hPa 0,0 l/m 11,9 km/h (2 Bft) SO 135 0,0 C -2,3 C
15.12.2012 03:06 1,3 C 92 % 998,6 hPa 0,0 l/m 15,5 km/h (3 Bft) S 180 0,1 C -2,9 C
15.12.2012 03:11 1,3 C 92 % 998,6 hPa 0,0 l/m 14,8 km/h (3 Bft) S-SW 202 0,1 C -2,8 C
15.12.2012 03:16 1,3 C 92 % 998,6 hPa 0,0 l/m 14,8 km/h (3 Bft) S 180 0,1 C -2,8 C
15.12.2012 03:21 1,3 C 92 % 998,4 hPa 0,0 l/m 5,8 km/h (2 Bft) S-SO 157 0,1 C -0,5 C
15.12.2012 03:26 1,3 C 92 % 998,3 hPa 0,0 l/m 8,6 km/h (2 Bft) S-SW 202 0,1 C -1,4 C
15.12.2012 03:31 1,3 C 92 % 998,2 hPa 0,0 l/m 15,8 km/h (3 Bft) SO 135 0,1 C -3,0 C
15.12.2012 03:36 1,3 C 92 % 998,2 hPa 0,0 l/m 7,9 km/h (2 Bft) O-SO 112 0,1 C -1,2 C
15.12.2012 03:41 1,3 C 92 % 998,2 hPa 0,0 l/m 10,8 km/h (2 Bft) S-SO 157 0,1 C -2,0 C
15.12.2012 03:46 1,3 C 92 % 998,1 hPa 0,0 l/m 13,3 km/h (3 Bft) S-SO 157 0,1 C -2,5 C
15.12.2012 03:51 1,3 C 92 % 998,0 hPa 0,0 l/m 7,2 km/h (2 Bft) S-SO 157 0,1 C -1,0 C
15.12.2012 03:56 1,4 C 92 % 998,2 hPa 0,0 l/m 3,2 km/h (1 Bft) O-SO 112 0,2 C 1,4 C
15.12.2012 04:01 1,4 C 92 % 998,2 hPa 0,0 l/m 11,9 km/h (2 Bft) S-SO 157 0,2 C -2,1 C
15.12.2012 04:06 1,4 C 92 % 998,4 hPa 0,0 l/m 17,3 km/h (3 Bft) SO 135 0,2 C -3,1 C
15.12.2012 04:11 1,5 C 93 % 998,6 hPa 0,0 l/m 13,0 km/h (3 Bft) SO 135 0,5 C -2,2 C
15.12.2012 04:16 1,5 C 93 % 998,5 hPa 0,0 l/m 9,7 km/h (2 Bft) S-SO 157 0,5 C -1,4 C
15.12.2012 04:21 1,5 C 93 % 998,3 hPa 0,0 l/m 16,9 km/h (3 Bft) S 180 0,5 C -2,9 C
15.12.2012 04:26 1,5 C 93 % 998,2 hPa 0,0 l/m 13,0 km/h (3 Bft) S-SO 157 0,5 C -2,2 C
15.12.2012 04:31 1,6 C 93 % 998,4 hPa 0,0 l/m 7,6 km/h (2 Bft) S-SO 157 0,6 C -0,7 C
15.12.2012 04:36 1,6 C 93 % 998,3 hPa 0,0 l/m 11,5 km/h (2 Bft) SO 135 0,6 C -1,8 C
15.12.2012 04:41 1,6 C 93 % 998,2 hPa 0,0 l/m 8,6 km/h (2 Bft) SO 135 0,6 C -1,0 C
15.12.2012 04:46 1,6 C 93 % 998,3 hPa 0,0 l/m 3,6 km/h (1 Bft) S-SO 157 0,6 C 1,6 C
15.12.2012 04:51 1,7 C 93 % 998,4 hPa 0,0 l/m 7,6 km/h (2 Bft) S 180 0,7 C -0,6 C
15.12.2012 04:56 1,8 C 93 % 998,6 hPa 0,0 l/m 5,0 km/h (1 Bft) S-SO 157 0,8 C 0,5 C
15.12.2012 05:01 1,8 C 93 % 998,6 hPa 0,0 l/m 4,3 km/h (1 Bft) O-SO 112 0,8 C 1,8 C
15.12.2012 05:06 1,8 C 93 % 998,4 hPa 0,0 l/m 2,2 km/h (1 Bft) S-SO 157 0,8 C 1,8 C
15.12.2012 05:11 1,8 C 93 % 998,5 hPa 0,0 l/m 14,4 km/h (3 Bft) S-SO 157 0,8 C -2,1 C
15.12.2012 05:16 1,8 C 93 % 998,5 hPa 0,0 l/m 8,3 km/h (2 Bft) S 180 0,8 C -0,7 C
15.12.2012 05:21 1,8 C 93 % 998,5 hPa 0,0 l/m 7,2 km/h (2 Bft) S 180 0,8 C -0,4 C
15.12.2012 05:26 1,9 C 93 % 998,4 hPa 0,0 l/m 13,3 km/h (3 Bft) S 180 0,9 C -1,8 C
15.12.2012 05:31 1,9 C 93 % 998,2 hPa 0,0 l/m 2,5 km/h (1 Bft) S-SO 157 0,9 C 1,9 C
15.12.2012 05:36 1,9 C 93 % 998,4 hPa 0,0 l/m 6,8 km/h (2 Bft) S 180 0,9 C -0,1 C
15.12.2012 05:41 1,9 C 93 % 998,3 hPa 0,0 l/m 14,0 km/h (3 Bft) S-SW 202 0,9 C -1,9 C
15.12.2012 05:46 1,9 C 93 % 998,5 hPa 0,0 l/m 6,1 km/h (2 Bft) SO 135 0,9 C 0,1 C
15.12.2012 05:51 1,9 C 93 % 998,6 hPa 0,0 l/m 2,5 km/h (1 Bft) S-SW 202 0,9 C 1,9 C
15.12.2012 05:56 1,9 C 93 % 998,4 hPa 0,0 l/m 3,2 km/h (1 Bft) S-SO 157 0,9 C 1,9 C
15.12.2012 06:01 1,9 C 93 % 998,1 hPa 0,0 l/m 2,5 km/h (1 Bft) SO 135 0,9 C 1,9 C
15.12.2012 06:06 2,1 C 93 % 998,2 hPa 0,0 l/m 6,5 km/h (2 Bft) SO 135 1,1 C 0,2 C
15.12.2012 06:11 2,0 C 93 % 998,1 hPa 0,0 l/m 7,2 km/h (2 Bft) S 180 1,0 C -0,1 C
15.12.2012 06:16 2,1 C 93 % 998,2 hPa 0,0 l/m 2,5 km/h (1 Bft) S-SO 157 1,1 C 2,1 C
15.12.2012 06:21 2,0 C 93 % 998,3 hPa 0,0 l/m 7,2 km/h (2 Bft) S-SO 157 1,0 C -0,1 C
15.12.2012 06:26 1,9 C 93 % 998,6 hPa 0,0 l/m 4,3 km/h (1 Bft) S-SO 157 0,9 C 1,9 C
15.12.2012 06:31 2,0 C 93 % 998,3 hPa 0,0 l/m 5,0 km/h (1 Bft) S-SO 157 1,0 C 0,7 C
15.12.2012 06:36 1,9 C 93 % 998,5 hPa 0,0 l/m 5,8 km/h (2 Bft) S-SO 157 0,9 C 0,2 C
15.12.2012 06:41 1,9 C 93 % 998,6 hPa 0,0 l/m 7,2 km/h (2 Bft) S 180 0,9 C -0,3 C
15.12.2012 06:46 1,9 C 93 % 998,9 hPa 0,0 l/m 8,3 km/h (2 Bft) S-SW 202 0,9 C -0,6 C
15.12.2012 06:51 1,9 C 93 % 999,1 hPa 0,0 l/m 7,2 km/h (2 Bft) S-SO 157 0,9 C -0,3 C
15.12.2012 06:56 2,0 C 93 % 998,9 hPa 0,0 l/m 4,7 km/h (1 Bft) S 180 1,0 C 0,8 C
15.12.2012 07:01 2,1 C 93 % 998,9 hPa 0,0 l/m 5,8 km/h (2 Bft) S-SW 202 1,1 C 0,5 C
15.12.2012 07:06 2,1 C 93 % 999,1 hPa 0,0 l/m 5,4 km/h (1 Bft) S-SW 202 1,1 C 0,6 C
15.12.2012 07:11 2,1 C 93 % 999,2 hPa 0,0 l/m 4,0 km/h (1 Bft) SW 225 1,1 C 2,1 C
15.12.2012 07:16 2,1 C 93 % 999,1 hPa 0,0 l/m 4,3 km/h (1 Bft) S 180 1,1 C 2,1 C
15.12.2012 07:21 2,1 C 93 % 999,3 hPa 0,0 l/m 5,4 km/h (1 Bft) S 180 1,1 C 0,6 C
15.12.2012 07:26 2,1 C 93 % 999,0 hPa 0,0 l/m 4,3 km/h (1 Bft) S-SO 157 1,1 C 2,1 C
15.12.2012 07:31 2,1 C 93 % 999,3 hPa 0,0 l/m 7,2 km/h (2 Bft) S 180 1,1 C -0,0 C
15.12.2012 07:36 2,1 C 93 % 999,3 hPa 0,0 l/m 4,3 km/h (1 Bft) SW 225 1,1 C 2,1 C
15.12.2012 07:41 2,1 C 93 % 999,3 hPa 0,0 l/m 8,6 km/h (2 Bft) S-SW 202 1,1 C -0,4 C
15.12.2012 07:46 2,1 C 93 % 999,2 hPa 0,0 l/m 5,0 km/h (1 Bft) S 180 1,1 C 0,8 C
15.12.2012 07:51 2,1 C 93 % 999,3 hPa 0,0 l/m 3,6 km/h (1 Bft) SW 225 1,1 C 2,1 C
15.12.2012 07:56 2,1 C 93 % 999,4 hPa 0,0 l/m 1,8 km/h (1 Bft) SW 225 1,1 C 2,1 C
15.12.2012 08:01 2,1 C 93 % 999,4 hPa 0,0 l/m 5,0 km/h (1 Bft) S-SW 202 1,1 C 0,8 C
15.12.2012 08:06 2,1 C 93 % 999,4 hPa 0,0 l/m 4,0 km/h (1 Bft) S-SO 157 1,1 C 2,1 C
15.12.2012 08:11 2,1 C 93 % 999,5 hPa 0,0 l/m 9,4 km/h (2 Bft) S 180 1,1 C -0,7 C
15.12.2012 08:16 2,1 C 93 % 999,4 hPa 0,0 l/m 4,7 km/h (1 Bft) S-SO 157 1,1 C 0,9 C
15.12.2012 08:21 2,1 C 93 % 999,6 hPa 0,0 l/m 5,8 km/h (2 Bft) SO 135 1,1 C 0,5 C
15.12.2012 08:26 2,1 C 93 % 999,4 hPa 0,0 l/m 2,5 km/h (1 Bft) SW 225 1,1 C 2,1 C
15.12.2012 08:31 2,1 C 93 % 999,3 hPa 0,0 l/m 3,2 km/h (1 Bft) S-SW 202 1,1 C 2,1 C
15.12.2012 08:36 2,1 C 93 % 999,5 hPa 0,0 l/m 5,8 km/h (2 Bft) S 180 1,1 C 0,5 C
15.12.2012 08:41 2,1 C 93 % 999,7 hPa 0,0 l/m 2,2 km/h (1 Bft) S-SO 157 1,1 C 2,1 C
15.12.2012 08:46 2,1 C 93 % 999,9 hPa 0,0 l/m 4,7 km/h (1 Bft) S-SO 157 1,1 C 0,9 C
15.12.2012 08:51 2,1 C 93 % 999,8 hPa 0,0 l/m 2,5 km/h (1 Bft) S-SO 157 1,1 C 2,1 C
15.12.2012 08:56 2,1 C 93 % 999,8 hPa 0,0 l/m 4,3 km/h (1 Bft) S-SW 202 1,1 C 2,1 C
15.12.2012 09:01 2,1 C 94 % 999,8 hPa 0,0 l/m 2,2 km/h (1 Bft) SO 135 1,2 C 2,1 C
15.12.2012 09:06 2,3 C 94 % 999,7 hPa 0,0 l/m 3,6 km/h (1 Bft) S-SO 157 1,4 C 2,3 C
15.12.2012 09:11 2,3 C 94 % 999,8 hPa 0,0 l/m 2,9 km/h (1 Bft) S 180 1,4 C 2,3 C
15.12.2012 09:16 2,3 C 94 % 999,6 hPa 0,0 l/m 0,0 km/h (0 Bft) S-SO 157 1,4 C 2,3 C
15.12.2012 09:21 2,3 C 94 % 999,8 hPa 0,0 l/m 6,8 km/h (2 Bft) S-SO 157 1,4 C 0,3 C
15.12.2012 09:26 2,3 C 94 % 1000,2 hPa 0,0 l/m 4,0 km/h (1 Bft) S 180 1,4 C 2,3 C
15.12.2012 09:31 2,4 C 94 % 1000,3 hPa 0,0 l/m 5,0 km/h (1 Bft) S-SO 157 1,5 C 1,1 C
15.12.2012 09:36 2,4 C 94 % 1000,3 hPa 0,0 l/m 3,2 km/h (1 Bft) S-SW 202 1,5 C 2,4 C
15.12.2012 09:41 2,4 C 94 % 1000,5 hPa 0,0 l/m 5,8 km/h (2 Bft) S 180 1,5 C 0,8 C
15.12.2012 09:46 2,5 C 94 % 1000,6 hPa 0,0 l/m 6,1 km/h (2 Bft) S 180 1,6 C 0,8 C
15.12.2012 09:51 2,6 C 94 % 1000,6 hPa 0,0 l/m 15,5 km/h (3 Bft) S-SW 202 1,7 C -1,3 C
15.12.2012 09:56 2,6 C 94 % 1000,6 hPa 0,0 l/m 9,4 km/h (2 Bft) S-SW 202 1,7 C -0,1 C
15.12.2012 10:01 2,7 C 94 % 1000,7 hPa 0,0 l/m 8,3 km/h (2 Bft) S-SW 202 1,8 C 0,3 C
15.12.2012 10:06 2,7 C 94 % 1000,8 hPa 0,0 l/m 10,8 km/h (2 Bft) S 180 1,8 C -0,3 C
15.12.2012 10:11 2,7 C 94 % 1000,8 hPa 0,0 l/m 13,7 km/h (3 Bft) S 180 1,8 C -0,9 C
15.12.2012 10:16 2,7 C 94 % 1001,1 hPa 0,0 l/m 7,9 km/h (2 Bft) S-SW 202 1,8 C 0,5 C
15.12.2012 10:21 2,8 C 94 % 1001,1 hPa 0,0 l/m 6,5 km/h (2 Bft) S-SO 157 1,9 C 1,0 C
15.12.2012 10:26 2,8 C 94 % 1001,2 hPa 0,0 l/m 12,6 km/h (3 Bft) S-SW 202 1,9 C -0,5 C
15.12.2012 10:31 2,9 C 94 % 1001,2 hPa 0,0 l/m 5,4 km/h (1 Bft) S-SW 202 2,0 C 1,5 C
15.12.2012 10:36 2,9 C 94 % 1001,3 hPa 0,0 l/m 7,6 km/h (2 Bft) S-SW 202 2,0 C 0,8 C
15.12.2012 10:41 2,9 C 94 % 1001,2 hPa 0,0 l/m 6,1 km/h (2 Bft) S-SW 202 2,0 C 1,3 C
15.12.2012 10:46 3,0 C 94 % 1001,2 hPa 0,0 l/m 7,2 km/h (2 Bft) S-SW 202 2,1 C 1,0 C
15.12.2012 10:51 3,0 C 94 % 1001,2 hPa 0,0 l/m 3,2 km/h (1 Bft) S-SW 202 2,1 C 3,0 C
15.12.2012 10:56 3,1 C 94 % 1001,2 hPa 0,0 l/m 15,1 km/h (3 Bft) S-SW 202 2,2 C -0,6 C
15.12.2012 11:01 3,1 C 94 % 1001,2 hPa 0,0 l/m 13,0 km/h (3 Bft) SW 225 2,2 C -0,2 C
15.12.2012 11:06 3,2 C 94 % 1001,2 hPa 0,0 l/m 6,1 km/h (2 Bft) W-SW 247 2,3 C 1,6 C
15.12.2012 11:11 3,3 C 94 % 1001,2 hPa 0,0 l/m 9,4 km/h (2 Bft) S 180 2,4 C 0,8 C
15.12.2012 11:16 3,3 C 93 % 1001,2 hPa 0,0 l/m 6,1 km/h (2 Bft) SW 225 2,3 C 1,7 C
15.12.2012 11:21 3,3 C 93 % 1001,2 hPa 0,0 l/m 9,4 km/h (2 Bft) SW 225 2,3 C 0,8 C
15.12.2012 11:26 3,3 C 93 % 1001,2 hPa 0,0 l/m 5,0 km/h (1 Bft) SW 225 2,3 C 2,2 C
15.12.2012 11:31 3,3 C 93 % 1001,3 hPa 0,0 l/m 4,0 km/h (1 Bft) S-SW 202 2,3 C 3,3 C
15.12.2012 11:36 3,4 C 93 % 1001,2 hPa 0,0 l/m 2,2 km/h (1 Bft) S 180 2,4 C 3,4 C
15.12.2012 11:41 3,4 C 93 % 1001,2 hPa 0,0 l/m 4,3 km/h (1 Bft) SW 225 2,4 C 3,4 C
15.12.2012 11:46 3,4 C 93 % 1001,2 hPa 0,0 l/m 3,6 km/h (1 Bft) S-SW 202 2,4 C 3,4 C
15.12.2012 11:51 3,4 C 93 % 1001,2 hPa 0,0 l/m 6,1 km/h (2 Bft) S-SW 202 2,4 C 1,8 C
15.12.2012 11:56 3,4 C 93 % 1001,2 hPa 0,0 l/m 7,6 km/h (2 Bft) S-SW 202 2,4 C 1,4 C
15.12.2012 12:01 3,4 C 93 % 1001,1 hPa 0,5 l/m 5,4 km/h (1 Bft) SW 225 2,4 C 2,1 C
15.12.2012 12:06 3,4 C 93 % 1001,2 hPa 0,0 l/m 9,0 km/h (2 Bft) W-SW 247 2,4 C 1,0 C
15.12.2012 12:11 3,4 C 93 % 1001,2 hPa 0,0 l/m 10,1 km/h (2 Bft) S 180 2,4 C 0,7 C
15.12.2012 12:16 3,5 C 93 % 1001,5 hPa 0,0 l/m 4,3 km/h (1 Bft) S-SW 202 2,5 C 3,5 C
15.12.2012 12:21 3,4 C 93 % 1001,4 hPa 0,0 l/m 3,2 km/h (1 Bft) S-SW 202 2,4 C 3,4 C
15.12.2012 12:26 3,5 C 93 % 1001,6 hPa 0,0 l/m 9,4 km/h (2 Bft) S 180 2,5 C 1,0 C
15.12.2012 12:31 3,5 C 93 % 1001,6 hPa 0,0 l/m 5,0 km/h (1 Bft) S 180 2,5 C 2,4 C
15.12.2012 12:36 3,5 C 93 % 1001,7 hPa 0,0 l/m 8,6 km/h (2 Bft) S-SW 202 2,5 C 1,2 C
15.12.2012 12:41 3,4 C 93 % 1001,6 hPa 0,0 l/m 11,2 km/h (2 Bft) S 180 2,4 C 0,5 C
15.12.2012 12:46 3,4 C 93 % 1001,6 hPa 0,0 l/m 7,2 km/h (2 Bft) SW 225 2,4 C 1,5 C
15.12.2012 12:51 3,4 C 93 % 1001,5 hPa 0,0 l/m 3,2 km/h (1 Bft) S-SO 157 2,4 C 3,4 C
15.12.2012 12:56 3,3 C 93 % 1001,5 hPa 0,0 l/m 6,1 km/h (2 Bft) S-SW 202 2,3 C 1,7 C
15.12.2012 13:01 3,3 C 93 % 1001,5 hPa 0,0 l/m 4,0 km/h (1 Bft) S-SW 202 2,3 C 3,3 C
15.12.2012 13:06 3,3 C 93 % 1001,5 hPa 0,0 l/m 7,2 km/h (2 Bft) W-SW 247 2,3 C 1,4 C
15.12.2012 13:11 3,4 C 93 % 1001,5 hPa 0,0 l/m 3,2 km/h (1 Bft) SW 225 2,4 C 3,4 C
15.12.2012 13:16 3,4 C 93 % 1001,5 hPa 0,0 l/m 7,2 km/h (2 Bft) S-SW 202 2,4 C 1,5 C
15.12.2012 13:21 3,5 C 93 % 1001,5 hPa 0,0 l/m 4,3 km/h (1 Bft) S 180 2,5 C 3,5 C
15.12.2012 13:26 3,5 C 93 % 1001,5 hPa 0,0 l/m 6,8 km/h (2 Bft) S-SW 202 2,5 C 1,7 C
15.12.2012 13:31 3,6 C 93 % 1001,4 hPa 0,0 l/m 5,4 km/h (1 Bft) S 180 2,6 C 2,3 C
15.12.2012 13:36 3,6 C 93 % 1001,5 hPa 0,0 l/m 2,9 km/h (1 Bft) S 180 2,6 C 3,6 C
15.12.2012 13:41 3,6 C 93 % 1001,6 hPa 0,0 l/m 3,6 km/h (1 Bft) SO 135 2,6 C 3,6 C
15.12.2012 13:46 3,7 C 93 % 1001,8 hPa 0,0 l/m 7,9 km/h (2 Bft) S-SO 157 2,7 C 1,6 C
15.12.2012 13:51 3,7 C 93 % 1001,7 hPa 0,0 l/m 5,4 km/h (1 Bft) S-SO 157 2,7 C 2,4 C
15.12.2012 13:56 3,8 C 93 % 1002,0 hPa 0,0 l/m 5,0 km/h (1 Bft) S-SW 202 2,8 C 2,7 C
15.12.2012 14:01 3,7 C 93 % 1001,9 hPa 0,0 l/m 0,0 km/h (0 Bft) S-SO 157 2,7 C 3,7 C
15.12.2012 14:06 3,6 C 92 % 1002,0 hPa 0,0 l/m 4,3 km/h (1 Bft) S-SW 202 2,4 C 3,6 C
15.12.2012 14:11 3,6 C 92 % 1002,1 hPa 0,0 l/m 6,5 km/h (2 Bft) S-SW 202 2,4 C 1,9 C
15.12.2012 14:16 3,7 C 92 % 1002,2 hPa 0,0 l/m 3,2 km/h (1 Bft) SW 225 2,5 C 3,7 C
15.12.2012 14:21 3,6 C 92 % 1002,3 hPa 0,0 l/m 6,1 km/h (2 Bft) W-SW 247 2,4 C 2,1 C
15.12.2012 14:26 3,6 C 92 % 1002,1 hPa 0,0 l/m 3,6 km/h (1 Bft) S-SW 202 2,4 C 3,6 C
15.12.2012 14:31 3,6 C 92 % 1002,2 hPa 0,0 l/m 3,6 km/h (1 Bft) SW 225 2,4 C 3,6 C
15.12.2012 14:36 3,6 C 92 % 1002,2 hPa 0,0 l/m 6,1 km/h (2 Bft) S-SO 157 2,4 C 2,1 C
15.12.2012 14:41 3,6 C 92 % 1002,3 hPa 0,0 l/m 5,8 km/h (2 Bft) SW 225 2,4 C 2,2 C
15.12.2012 14:46 3,6 C 92 % 1002,2 hPa 0,0 l/m 6,1 km/h (2 Bft) SW 225 2,4 C 2,1 C
15.12.2012 14:51 3,5 C 92 % 1002,2 hPa 0,0 l/m 2,2 km/h (1 Bft) S-SO 157 2,3 C 3,5 C
15.12.2012 14:56 3,5 C 92 % 1002,2 hPa 0,0 l/m 4,0 km/h (1 Bft) S 180 2,3 C 3,5 C
15.12.2012 15:01 3,4 C 92 % 1002,2 hPa 0,0 l/m 7,2 km/h (2 Bft) S-SW 202 2,2 C 1,5 C
15.12.2012 15:06 3,4 C 92 % 1002,3 hPa 0,5 l/m 7,2 km/h (2 Bft) S 180 2,2 C 1,5 C
15.12.2012 15:11 3,3 C 92 % 1002,3 hPa 0,0 l/m 5,0 km/h (1 Bft) SW 225 2,1 C 2,2 C
15.12.2012 15:16 3,3 C 92 % 1002,5 hPa 0,0 l/m 3,6 km/h (1 Bft) W-SW 247 2,1 C 3,3 C
15.12.2012 15:21 3,2 C 92 % 1002,6 hPa 0,0 l/m 8,3 km/h (2 Bft) SW 225 2,0 C 0,9 C
15.12.2012 15:26 3,1 C 92 % 1002,7 hPa 0,0 l/m 3,2 km/h (1 Bft) S-SW 202 1,9 C 3,1 C
15.12.2012 15:31 3,1 C 92 % 1002,8 hPa 0,0 l/m 6,5 km/h (2 Bft) SW 225 1,9 C 1,4 C
15.12.2012 15:36 3,1 C 92 % 1003,0 hPa 0,0 l/m 4,7 km/h (1 Bft) S 180 1,9 C 2,1 C
15.12.2012 15:41 3,0 C 92 % 1002,8 hPa 0,0 l/m 7,2 km/h (2 Bft) S-SW 202 1,8 C 1,0 C
15.12.2012 15:46 2,9 C 92 % 1002,8 hPa 0,0 l/m 4,3 km/h (1 Bft) S-SW 202 1,7 C 2,9 C
15.12.2012 15:51 2,9 C 92 % 1003,2 hPa 0,0 l/m 5,0 km/h (1 Bft) S-SO 157 1,7 C 1,7 C
15.12.2012 15:56 2,9 C 92 % 1003,2 hPa 0,0 l/m 3,6 km/h (1 Bft) S-SO 157 1,7 C 2,9 C
15.12.2012 16:01 2,9 C 92 % 1003,3 hPa 0,0 l/m 1,8 km/h (1 Bft) SW 225 1,7 C 2,9 C
15.12.2012 16:06 2,8 C 93 % 1003,2 hPa 0,0 l/m 1,4 km/h (1 Bft) S-SW 202 1,8 C 2,8 C
15.12.2012 16:11 2,8 C 93 % 1003,2 hPa 0,0 l/m 0,0 km/h (0 Bft) S-SW 202 1,8 C 2,8 C
15.12.2012 16:16 2,7 C 93 % 1003,4 hPa 0,0 l/m 5,4 km/h (1 Bft) S 180 1,7 C 1,3 C
15.12.2012 16:21 2,7 C 93 % 1003,3 hPa 0,0 l/m 3,2 km/h (1 Bft) W-SW 247 1,7 C 2,7 C
15.12.2012 16:26 2,7 C 93 % 1003,5 hPa 0,0 l/m 3,6 km/h (1 Bft) S-SW 202 1,7 C 2,7 C
15.12.2012 16:31 2,7 C 93 % 1003,3 hPa 0,0 l/m 2,5 km/h (1 Bft) S-SW 202 1,7 C 2,7 C
15.12.2012 16:36 2,7 C 93 % 1003,5 hPa 0,0 l/m 4,3 km/h (1 Bft) SW 225 1,7 C 2,7 C
15.12.2012 16:41 2,7 C 93 % 1003,6 hPa 0,0 l/m 2,9 km/h (1 Bft) W-SW 247 1,7 C 2,7 C
15.12.2012 16:46 2,7 C 93 % 1003,6 hPa 0,0 l/m 2,5 km/h (1 Bft) S 180 1,7 C 2,7 C
15.12.2012 16:51 2,7 C 93 % 1003,5 hPa 0,0 l/m 5,4 km/h (1 Bft) S 180 1,7 C 1,3 C
15.12.2012 16:56 2,7 C 93 % 1003,6 hPa 0,0 l/m 0,0 km/h (0 Bft) S-SW 202 1,7 C 2,7 C
15.12.2012 17:01 2,6 C 92 % 1003,7 hPa 0,0 l/m 0,0 km/h (0 Bft) S-SW 202 1,4 C 2,6 C
15.12.2012 17:06 2,6 C 92 % 1003,7 hPa 0,0 l/m 0,0 km/h (0 Bft) S-SW 202 1,4 C 2,6 C
15.12.2012 17:11 2,5 C 92 % 1003,9 hPa 0,0 l/m 1,8 km/h (1 Bft) S-SO 157 1,3 C 2,5 C
15.12.2012 17:16 2,5 C 92 % 1003,8 hPa 0,0 l/m 4,7 km/h (1 Bft) SW 225 1,3 C 1,4 C
15.12.2012 17:21 2,5 C 92 % 1003,8 hPa 0,0 l/m 8,3 km/h (2 Bft) S-SW 202 1,3 C 0,1 C
15.12.2012 17:26 2,4 C 92 % 1003,8 hPa 0,0 l/m 4,7 km/h (1 Bft) S-SW 202 1,2 C 1,3 C
15.12.2012 17:31 2,4 C 93 % 1003,8 hPa 0,0 l/m 0,0 km/h (0 Bft) S-SO 157 1,4 C 2,4 C
15.12.2012 17:36 2,4 C 93 % 1003,9 hPa 0,0 l/m 0,0 km/h (0 Bft) S 180 1,4 C 2,4 C
15.12.2012 17:41 2,4 C 93 % 1003,9 hPa 0,0 l/m 5,0 km/h (1 Bft) S-SW 202 1,4 C 1,1 C
15.12.2012 17:46 2,4 C 93 % 1004,0 hPa 0,0 l/m 1,1 km/h (1 Bft) S 180 1,4 C 2,4 C
15.12.2012 17:51 2,4 C 93 % 1004,0 hPa 0,0 l/m 3,6 km/h (1 Bft) S-SW 202 1,4 C 2,4 C
15.12.2012 17:56 2,3 C 93 % 1004,1 hPa 0,0 l/m 3,6 km/h (1 Bft) S 180 1,3 C 2,3 C
15.12.2012 18:01 2,2 C 93 % 1004,1 hPa 0,0 l/m 5,0 km/h (1 Bft) S 180 1,2 C 0,9 C
15.12.2012 18:06 2,1 C 93 % 1004,1 hPa 0,0 l/m 5,0 km/h (1 Bft) S 180 1,1 C 0,8 C
15.12.2012 18:11 2,1 C 93 % 1004,1 hPa 0,0 l/m 5,4 km/h (1 Bft) S-SW 202 1,1 C 0,6 C
15.12.2012 18:16 2,0 C 93 % 1004,2 hPa 0,0 l/m 1,8 km/h (1 Bft) S 180 1,0 C 2,0 C
15.12.2012 18:21 1,9 C 93 % 1004,2 hPa 0,0 l/m 7,2 km/h (2 Bft) SW 225 0,9 C -0,3 C
15.12.2012 18:26 1,9 C 93 % 1004,3 hPa 0,0 l/m 8,3 km/h (2 Bft) S-SW 202 0,9 C -0,6 C
15.12.2012 18:31 1,9 C 93 % 1004,3 hPa 0,0 l/m 4,0 km/h (1 Bft) SW 225 0,9 C 1,9 C
15.12.2012 18:36 1,8 C 93 % 1004,2 hPa 0,0 l/m 4,0 km/h (1 Bft) S-SO 157 0,8 C 1,8 C
15.12.2012 18:41 1,8 C 93 % 1004,3 hPa 0,0 l/m 2,5 km/h (1 Bft) S-SW 202 0,8 C 1,8 C
15.12.2012 18:46 1,8 C 93 % 1004,4 hPa 0,0 l/m 3,2 km/h (1 Bft) S-SW 202 0,8 C 1,8 C
15.12.2012 18:51 1,8 C 93 % 1004,4 hPa 0,0 l/m 4,0 km/h (1 Bft) S 180 0,8 C 1,8 C
15.12.2012 18:56 1,8 C 93 % 1004,5 hPa 0,0 l/m 6,5 km/h (2 Bft) SW 225 0,8 C -0,1 C
15.12.2012 19:01 1,8 C 93 % 1004,5 hPa 0,0 l/m 5,0 km/h (1 Bft) W-SW 247 0,8 C 0,5 C
15.12.2012 19:06 1,9 C 93 % 1004,3 hPa 0,0 l/m 5,8 km/h (2 Bft) S-SO 157 0,9 C 0,2 C
15.12.2012 19:11 1,9 C 93 % 1004,4 hPa 0,0 l/m 3,2 km/h (1 Bft) S 180 0,9 C 1,9 C
15.12.2012 19:16 1,9 C 93 % 1004,5 hPa 0,0 l/m 0,0 km/h (0 Bft) S-SO 157 0,9 C 1,9 C
15.12.2012 19:21 1,9 C 93 % 1004,7 hPa 0,0 l/m 3,6 km/h (1 Bft) SW 225 0,9 C 1,9 C
15.12.2012 19:26 1,9 C 93 % 1004,7 hPa 0,0 l/m 4,7 km/h (1 Bft) S-SW 202 0,9 C 0,7 C
15.12.2012 19:31 1,9 C 93 % 1004,7 hPa 0,0 l/m 4,7 km/h (1 Bft) S-SW 202 0,9 C 0,7 C
15.12.2012 19:36 1,9 C 93 % 1004,7 hPa 0,0 l/m 3,2 km/h (1 Bft) S-SO 157 0,9 C 1,9 C
15.12.2012 19:41 2,0 C 93 % 1004,6 hPa 0,0 l/m 0,0 km/h (0 Bft) S 180 1,0 C 2,0 C
15.12.2012 19:46 2,1 C 93 % 1004,8 hPa 0,0 l/m 0,0 km/h (0 Bft) S 180 1,1 C 2,1 C
15.12.2012 19:51 2,1 C 93 % 1004,8 hPa 0,0 l/m 3,6 km/h (1 Bft) S-SO 157 1,1 C 2,1 C
15.12.2012 19:56 2,1 C 93 % 1004,9 hPa 0,0 l/m 5,0 km/h (1 Bft) S-SO 157 1,1 C 0,8 C
15.12.2012 20:01 2,1 C 93 % 1004,9 hPa 0,0 l/m 5,4 km/h (1 Bft) S 180 1,1 C 0,6 C
15.12.2012 20:06 2,2 C 93 % 1005,0 hPa 0,0 l/m 3,2 km/h (1 Bft) S-SO 157 1,2 C 2,2 C
15.12.2012 20:11 2,2 C 93 % 1005,0 hPa 0,0 l/m 0,0 km/h (0 Bft) S-SO 157 1,2 C 2,2 C
15.12.2012 20:16 2,2 C 93 % 1005,1 hPa 0,0 l/m 5,4 km/h (1 Bft) S 180 1,2 C 0,7 C
15.12.2012 20:21 2,2 C 93 % 1005,2 hPa 0,0 l/m 2,5 km/h (1 Bft) S 180 1,2 C 2,2 C
15.12.2012 20:26 2,2 C 93 % 1005,0 hPa 0,0 l/m 6,1 km/h (2 Bft) S-SO 157 1,2 C 0,5 C
15.12.2012 20:31 2,2 C 94 % 1005,2 hPa 0,0 l/m 3,6 km/h (1 Bft) SO 135 1,3 C 2,2 C
15.12.2012 20:36 2,3 C 94 % 1005,2 hPa 0,0 l/m 4,0 km/h (1 Bft) S-SO 157 1,4 C 2,3 C
15.12.2012 20:41 2,3 C 94 % 1005,2 hPa 0,0 l/m 5,4 km/h (1 Bft) S 180 1,4 C 0,9 C
15.12.2012 20:46 2,3 C 94 % 1005,2 hPa 0,0 l/m 3,6 km/h (1 Bft) S-SO 157 1,4 C 2,3 C
15.12.2012 20:51 2,3 C 94 % 1005,2 hPa 0,0 l/m 2,2 km/h (1 Bft) S-SO 157 1,4 C 2,3 C
15.12.2012 20:56 2,3 C 94 % 1005,3 hPa 0,0 l/m 3,2 km/h (1 Bft) S-SW 202 1,4 C 2,3 C
15.12.2012 21:01 2,3 C 94 % 1005,4 hPa 0,0 l/m 0,0 km/h (0 Bft) S-SW 202 1,4 C 2,3 C
15.12.2012 21:06 2,4 C 94 % 1005,2 hPa 0,0 l/m 2,2 km/h (1 Bft) S 180 1,5 C 2,4 C
15.12.2012 21:11 2,4 C 94 % 1005,3 hPa 0,0 l/m 2,5 km/h (1 Bft) S-SW 202 1,5 C 2,4 C
15.12.2012 21:16 2,4 C 94 % 1005,2 hPa 0,0 l/m 4,7 km/h (1 Bft) SW 225 1,5 C 1,3 C
15.12.2012 21:21 2,4 C 94 % 1005,2 hPa 0,0 l/m 7,6 km/h (2 Bft) S-SW 202 1,5 C 0,2 C
15.12.2012 21:26 2,5 C 94 % 1005,2 hPa 0,0 l/m 4,3 km/h (1 Bft) S-SW 202 1,6 C 2,5 C
15.12.2012 21:31 2,5 C 94 % 1005,3 hPa 0,0 l/m 2,5 km/h (1 Bft) S-SW 202 1,6 C 2,5 C
15.12.2012 21:36 2,6 C 94 % 1005,4 hPa 0,0 l/m 6,5 km/h (2 Bft) S-SW 202 1,7 C 0,8 C
15.12.2012 21:41 2,6 C 94 % 1005,4 hPa 0,0 l/m 1,8 km/h (1 Bft) S-SW 202 1,7 C 2,6 C
15.12.2012 21:46 2,6 C 94 % 1005,5 hPa 0,0 l/m 5,8 km/h (2 Bft) S-SO 157 1,7 C 1,0 C
15.12.2012 21:51 2,7 C 94 % 1005,4 hPa 0,0 l/m 5,8 km/h (2 Bft) S 180 1,8 C 1,2 C
15.12.2012 21:56 2,7 C 94 % 1005,4 hPa 0,0 l/m 2,9 km/h (1 Bft) S 180 1,8 C 2,7 C
15.12.2012 22:01 2,7 C 94 % 1005,3 hPa 0,0 l/m 2,5 km/h (1 Bft) S 180 1,8 C 2,7 C
15.12.2012 22:06 2,7 C 94 % 1005,4 hPa 0,0 l/m 4,3 km/h (1 Bft) S 180 1,8 C 2,7 C
15.12.2012 22:11 2,7 C 94 % 1005,6 hPa 0,0 l/m 2,5 km/h (1 Bft) SW 225 1,8 C 2,7 C
15.12.2012 22:16 2,8 C 94 % 1005,3 hPa 0,0 l/m 4,0 km/h (1 Bft) SW 225 1,9 C 2,8 C
15.12.2012 22:21 2,7 C 94 % 1005,5 hPa 0,0 l/m 2,2 km/h (1 Bft) S-SW 202 1,8 C 2,7 C
15.12.2012 22:26 2,7 C 94 % 1005,4 hPa 0,0 l/m 0,0 km/h (0 Bft) S 180 1,8 C 2,7 C
15.12.2012 22:31 2,7 C 94 % 1005,5 hPa 0,0 l/m 4,7 km/h (1 Bft) S 180 1,8 C 1,6 C
15.12.2012 22:36 2,7 C 94 % 1005,3 hPa 0,0 l/m 4,0 km/h (1 Bft) S-SW 202 1,8 C 2,7 C
15.12.2012 22:41 2,7 C 94 % 1005,5 hPa 0,0 l/m 3,2 km/h (1 Bft) W-SW 247 1,8 C 2,7 C
15.12.2012 22:46 2,7 C 94 % 1005,6 hPa 0,0 l/m 0,0 km/h (0 Bft) S 180 1,8 C 2,7 C
15.12.2012 22:51 2,7 C 94 % 1005,7 hPa 0,0 l/m 4,7 km/h (1 Bft) S-SW 202 1,8 C 1,6 C
15.12.2012 22:56 2,7 C 94 % 1005,6 hPa 0,0 l/m 4,3 km/h (1 Bft) S-SW 202 1,8 C 2,7 C
15.12.2012 23:01 2,7 C 94 % 1005,6 hPa 0,0 l/m 8,3 km/h (2 Bft) S-SW 202 1,8 C 0,3 C
15.12.2012 23:06 2,7 C 94 % 1005,6 hPa 0,0 l/m 3,6 km/h (1 Bft) S-SO 157 1,8 C 2,7 C
15.12.2012 23:11 2,6 C 94 % 1005,8 hPa 0,0 l/m 3,2 km/h (1 Bft) S-SW 202 1,7 C 2,6 C
15.12.2012 23:16 2,6 C 94 % 1005,6 hPa 0,0 l/m 4,0 km/h (1 Bft) S-SO 157 1,7 C 2,6 C
15.12.2012 23:21 2,6 C 94 % 1005,7 hPa 0,0 l/m 3,2 km/h (1 Bft) SO 135 1,7 C 2,6 C
15.12.2012 23:26 2,6 C 94 % 1005,8 hPa 0,0 l/m 4,0 km/h (1 Bft) SW 225 1,7 C 2,6 C
15.12.2012 23:31 2,6 C 94 % 1005,6 hPa 0,0 l/m 7,6 km/h (2 Bft) SW 225 1,7 C 0,4 C
15.12.2012 23:36 2,6 C 94 % 1005,7 hPa 0,0 l/m 6,8 km/h (2 Bft) S-SW 202 1,7 C 0,7 C
15.12.2012 23:41 2,6 C 94 % 1005,6 hPa 0,0 l/m 3,6 km/h (1 Bft) S 180 1,7 C 2,6 C
15.12.2012 23:46 2,7 C 94 % 1005,5 hPa 0,0 l/m 5,0 km/h (1 Bft) S-SW 202 1,8 C 1,5 C
15.12.2012 23:51 2,7 C 94 % 1005,7 hPa 0,0 l/m 2,2 km/h (1 Bft) S-SW 202 1,8 C 2,7 C
15.12.2012 23:56 2,7 C 94 % 1005,6 hPa 0,0 l/m 4,7 km/h (1 Bft) SW 225 1,8 C 1,6 C
_ Min-Zeit 00:01 00:01 03:51 - 09:16 - - 00:01 00:21
Minimum _ 0,3 C 88 % 998,0 hPa - 0,0 km/h (0 Bft) - - -1,4 C -5,1 C
_ Max-Zeit 13:56 09:01 23:11 12:01 00:21 - - 13:56 14:01
Maximum _ 3,8 C 94 % 1005,8 hPa 0,5 l/m 23,0 km/h
NO (4 Bft)
- - 2,8 C 3,7 C
Durchschnitt _ 2,3 C 93 % 1001,6 hPa #1,0 l/m 6,2 km/h (2 Bft) S-SW - 1,2 C 0,9 C
(c) by David Heller